Terminal Aerodrome Forecast
Issued by NWS

Home | Current Version | Previous Version | Graphics & Text | Print | Product List | Glossary On
Versions: 1 2 3 4 5 6 7 8 9 10 11 12 13 14 15 16 17 18 19
000
FTUS43 KMPX 192330
TAFRWF
TAF
KRWF 192330Z 2000/2024 04011G19KT P6SM BKN035
     FM200500 04010KT P6SM BKN100
     FM201500 07009KT P6SM SCT100=

USA.gov is the U.S. government's official web portal to all federal, state and local government web resources and services.